sensor_id;sensor_type;location;lat;lon;timestamp;P1;durP1;ratioP1;P2;durP2;ratioP2
52136;SDS011;69622;49.570;10.986;2024-02-14T00:01:44;5.80;;;2.78;;
52136;SDS011;69622;49.570;10.986;2024-02-14T00:04:45;6.50;;;3.00;;
52136;SDS011;69622;49.570;10.986;2024-02-14T00:07:47;5.00;;;3.13;;
52136;SDS011;69622;49.570;10.986;2024-02-14T00:10:48;8.80;;;3.60;;
52136;SDS011;69622;49.570;10.986;2024-02-14T00:13:50;6.63;;;3.25;;
52136;SDS011;69622;49.570;10.986;2024-02-14T00:16:51;5.57;;;3.00;;
52136;SDS011;69622;49.570;10.986;2024-02-14T00:19:53;6.20;;;3.33;;
52136;SDS011;69622;49.570;10.986;2024-02-14T00:22:54;4.97;;;2.72;;
52136;SDS011;69622;49.570;10.986;2024-02-14T00:25:56;7.75;;;3.38;;
52136;SDS011;69622;49.570;10.986;2024-02-14T00:28:57;7.45;;;3.50;;
52136;SDS011;69622;49.570;10.986;2024-02-14T00:31:59;5.80;;;2.35;;
52136;SDS011;69622;49.570;10.986;2024-02-14T00:35:00;7.18;;;3.70;;
52136;SDS011;69622;49.570;10.986;2024-02-14T00:38:02;4.30;;;2.80;;
52136;SDS011;69622;49.570;10.986;2024-02-14T00:41:03;8.02;;;3.17;;
52136;SDS011;69622;49.570;10.986;2024-02-14T00:44:05;5.32;;;2.58;;
52136;SDS011;69622;49.570;10.986;2024-02-14T00:47:06;6.50;;;3.30;;
52136;SDS011;69622;49.570;10.986;2024-02-14T00:50:08;4.30;;;2.53;;
52136;SDS011;69622;49.570;10.986;2024-02-14T00:53:10;8.55;;;3.05;;
52136;SDS011;69622;49.570;10.986;2024-02-14T00:56:11;8.50;;;2.78;;
52136;SDS011;69622;49.570;10.986;2024-02-14T00:59:13;9.25;;;3.97;;
52136;SDS011;69622;49.570;10.986;2024-02-14T01:02:14;5.55;;;3.20;;
52136;SDS011;69622;49.570;10.986;2024-02-14T01:05:16;8.82;;;3.40;;
52136;SDS011;69622;49.570;10.986;2024-02-14T01:08:18;6.32;;;3.30;;
52136;SDS011;69622;49.570;10.986;2024-02-14T01:11:19;6.75;;;3.30;;
52136;SDS011;69622;49.570;10.986;2024-02-14T01:14:21;6.05;;;2.97;;
52136;SDS011;69622;49.570;10.986;2024-02-14T01:17:23;6.32;;;3.13;;
52136;SDS011;69622;49.570;10.986;2024-02-14T01:20:26;8.40;;;3.17;;
52136;SDS011;69622;49.570;10.986;2024-02-14T01:23:27;6.55;;;3.45;;
52136;SDS011;69622;49.570;10.986;2024-02-14T01:26:29;7.25;;;3.13;;
52136;SDS011;69622;49.570;10.986;2024-02-14T01:29:30;5.85;;;3.20;;
52136;SDS011;69622;49.570;10.986;2024-02-14T01:32:32;8.20;;;3.03;;
52136;SDS011;69622;49.570;10.986;2024-02-14T01:35:33;8.52;;;3.50;;
52136;SDS011;69622;49.570;10.986;2024-02-14T01:38:35;9.48;;;3.53;;
52136;SDS011;69622;49.570;10.986;2024-02-14T01:41:37;7.38;;;3.58;;
52136;SDS011;69622;49.570;10.986;2024-02-14T01:44:39;5.85;;;3.28;;
52136;SDS011;69622;49.570;10.986;2024-02-14T01:47:41;5.88;;;3.55;;
52136;SDS011;69622;49.570;10.986;2024-02-14T01:50:43;6.60;;;3.65;;
52136;SDS011;69622;49.570;10.986;2024-02-14T01:53:44;5.60;;;3.05;;
52136;SDS011;69622;49.570;10.986;2024-02-14T01:56:46;5.28;;;3.30;;
52136;SDS011;69622;49.570;10.986;2024-02-14T01:59:48;6.63;;;3.53;;
52136;SDS011;69622;49.570;10.986;2024-02-14T02:02:53;6.50;;;3.73;;
52136;SDS011;69622;49.570;10.986;2024-02-14T02:05:57;5.53;;;3.10;;
52136;SDS011;69622;49.570;10.986;2024-02-14T02:08:59;5.70;;;3.67;;
52136;SDS011;69622;49.570;10.986;2024-02-14T02:12:02;6.90;;;3.58;;
52136;SDS011;69622;49.570;10.986;2024-02-14T02:36:58;9.60;;;3.88;;
52136;SDS011;69622;49.570;10.986;2024-02-14T02:39:59;8.70;;;3.70;;
52136;SDS011;69622;49.570;10.986;2024-02-14T02:43:00;6.90;;;3.42;;
52136;SDS011;69622;49.570;10.986;2024-02-14T02:46:02;5.82;;;3.08;;
52136;SDS011;69622;49.570;10.986;2024-02-14T02:49:03;4.95;;;2.90;;
52136;SDS011;69622;49.570;10.986;2024-02-14T02:52:05;10.05;;;3.25;;
52136;SDS011;69622;49.570;10.986;2024-02-14T02:55:07;6.95;;;3.30;;
52136;SDS011;69622;49.570;10.986;2024-02-14T02:58:09;4.68;;;2.92;;
52136;SDS011;69622;49.570;10.986;2024-02-14T03:01:10;5.28;;;2.95;;
52136;SDS011;69622;49.570;10.986;2024-02-14T03:04:15;6.63;;;3.33;;
52136;SDS011;69622;49.570;10.986;2024-02-14T03:07:17;6.13;;;2.60;;
52136;SDS011;69622;49.570;10.986;2024-02-14T03:10:18;5.25;;;3.30;;
52136;SDS011;69622;49.570;10.986;2024-02-14T03:13:20;4.40;;;2.58;;
52136;SDS011;69622;49.570;10.986;2024-02-14T03:16:21;5.93;;;2.90;;
52136;SDS011;69622;49.570;10.986;2024-02-14T03:19:24;5.50;;;3.20;;
52136;SDS011;69622;49.570;10.986;2024-02-14T03:22:28;6.68;;;3.42;;
52136;SDS011;69622;49.570;10.986;2024-02-14T03:25:29;7.15;;;3.53;;
52136;SDS011;69622;49.570;10.986;2024-02-14T03:28:31;4.00;;;2.30;;
52136;SDS011;69622;49.570;10.986;2024-02-14T03:31:32;9.27;;;3.35;;
52136;SDS011;69622;49.570;10.986;2024-02-14T03:34:34;5.55;;;3.15;;
52136;SDS011;69622;49.570;10.986;2024-02-14T03:37:37;5.68;;;2.72;;
52136;SDS011;69622;49.570;10.986;2024-02-14T03:40:40;5.18;;;3.25;;
52136;SDS011;69622;49.570;10.986;2024-02-14T03:43:43;8.55;;;3.70;;
52136;SDS011;69622;49.570;10.986;2024-02-14T03:46:44;4.05;;;2.85;;
52136;SDS011;69622;49.570;10.986;2024-02-14T03:49:46;7.32;;;2.95;;
52136;SDS011;69622;49.570;10.986;2024-02-14T03:52:47;4.53;;;2.70;;
52136;SDS011;69622;49.570;10.986;2024-02-14T03:55:49;4.78;;;2.70;;
52136;SDS011;69622;49.570;10.986;2024-02-14T03:58:51;5.60;;;3.28;;
52136;SDS011;69622;49.570;10.986;2024-02-14T04:01:53;5.90;;;2.80;;
52136;SDS011;69622;49.570;10.986;2024-02-14T04:04:54;6.43;;;2.95;;
52136;SDS011;69622;49.570;10.986;2024-02-14T04:07:55;4.25;;;2.75;;
52136;SDS011;69622;49.570;10.986;2024-02-14T04:10:57;7.82;;;3.50;;
52136;SDS011;69622;49.570;10.986;2024-02-14T04:13:58;5.57;;;2.95;;
52136;SDS011;69622;49.570;10.986;2024-02-14T04:17:00;8.35;;;3.05;;
52136;SDS011;69622;49.570;10.986;2024-02-14T04:20:01;4.78;;;3.00;;
52136;SDS011;69622;49.570;10.986;2024-02-14T04:23:03;4.30;;;2.75;;
52136;SDS011;69622;49.570;10.986;2024-02-14T04:26:07;7.30;;;2.97;;
52136;SDS011;69622;49.570;10.986;2024-02-14T04:29:09;6.50;;;3.10;;
52136;SDS011;69622;49.570;10.986;2024-02-14T04:32:11;4.10;;;2.50;;
52136;SDS011;69622;49.570;10.986;2024-02-14T04:35:12;6.88;;;3.05;;
52136;SDS011;69622;49.570;10.986;2024-02-14T04:38:14;7.50;;;3.15;;
52136;SDS011;69622;49.570;10.986;2024-02-14T04:41:16;6.00;;;3.08;;
52136;SDS011;69622;49.570;10.986;2024-02-14T04:44:18;5.90;;;2.83;;
52136;SDS011;69622;49.570;10.986;2024-02-14T04:47:19;4.80;;;3.67;;
52136;SDS011;69622;49.570;10.986;2024-02-14T04:50:21;7.53;;;2.83;;
52136;SDS011;69622;49.570;10.986;2024-02-14T04:53:23;5.97;;;3.20;;
52136;SDS011;69622;49.570;10.986;2024-02-14T04:56:25;5.57;;;3.10;;
52136;SDS011;69622;49.570;10.986;2024-02-14T04:59:27;5.97;;;2.70;;
52136;SDS011;69622;49.570;10.986;2024-02-14T05:02:29;5.68;;;3.03;;
52136;SDS011;69622;49.570;10.986;2024-02-14T05:05:30;5.38;;;2.88;;
52136;SDS011;69622;49.570;10.986;2024-02-14T05:08:32;5.72;;;2.50;;
52136;SDS011;69622;49.570;10.986;2024-02-14T05:11:33;6.15;;;2.70;;
52136;SDS011;69622;49.570;10.986;2024-02-14T05:14:37;5.03;;;2.75;;
52136;SDS011;69622;49.570;10.986;2024-02-14T05:17:41;4.80;;;2.63;;
52136;SDS011;69622;49.570;10.986;2024-02-14T05:20:43;6.73;;;3.47;;
52136;SDS011;69622;49.570;10.986;2024-02-14T05:23:45;4.72;;;2.85;;
52136;SDS011;69622;49.570;10.986;2024-02-14T05:26:47;4.85;;;2.75;;
52136;SDS011;69622;49.570;10.986;2024-02-14T05:29:48;8.82;;;3.03;;
52136;SDS011;69622;49.570;10.986;2024-02-14T05:32:50;5.30;;;3.10;;
52136;SDS011;69622;49.570;10.986;2024-02-14T05:35:54;7.72;;;3.05;;
52136;SDS011;69622;49.570;10.986;2024-02-14T05:38:55;7.63;;;2.85;;
52136;SDS011;69622;49.570;10.986;2024-02-14T05:41:57;3.92;;;2.70;;
52136;SDS011;69622;49.570;10.986;2024-02-14T05:44:58;4.50;;;3.17;;
52136;SDS011;69622;49.570;10.986;2024-02-14T05:48:00;7.75;;;3.58;;
52136;SDS011;69622;49.570;10.986;2024-02-14T05:51:01;8.10;;;3.42;;
52136;SDS011;69622;49.570;10.986;2024-02-14T05:54:03;6.80;;;3.47;;
52136;SDS011;69622;49.570;10.986;2024-02-14T05:57:05;4.18;;;2.72;;
52136;SDS011;69622;49.570;10.986;2024-02-14T06:00:06;6.55;;;2.72;;
52136;SDS011;69622;49.570;10.986;2024-02-14T06:03:12;6.45;;;2.90;;
52136;SDS011;69622;49.570;10.986;2024-02-14T06:06:14;5.50;;;2.90;;
52136;SDS011;69622;49.570;10.986;2024-02-14T06:09:15;5.90;;;3.25;;
52136;SDS011;69622;49.570;10.986;2024-02-14T06:12:17;6.20;;;3.42;;
52136;SDS011;69622;49.570;10.986;2024-02-14T06:15:18;7.38;;;4.18;;
52136;SDS011;69622;49.570;10.986;2024-02-14T06:18:20;5.40;;;2.85;;
52136;SDS011;69622;49.570;10.986;2024-02-14T06:21:22;4.10;;;2.58;;
52136;SDS011;69622;49.570;10.986;2024-02-14T06:24:23;7.03;;;3.10;;
52136;SDS011;69622;49.570;10.986;2024-02-14T06:27:24;6.40;;;2.90;;
52136;SDS011;69622;49.570;10.986;2024-02-14T06:30:26;4.53;;;2.70;;
52136;SDS011;69622;49.570;10.986;2024-02-14T06:33:33;6.00;;;2.60;;
52136;SDS011;69622;49.570;10.986;2024-02-14T06:36:35;7.03;;;3.20;;
52136;SDS011;69622;49.570;10.986;2024-02-14T06:39:37;7.38;;;3.20;;
52136;SDS011;69622;49.570;10.986;2024-02-14T06:42:38;7.70;;;2.75;;
52136;SDS011;69622;49.570;10.986;2024-02-14T06:45:40;5.80;;;3.05;;
52136;SDS011;69622;49.570;10.986;2024-02-14T06:48:41;6.03;;;2.60;;
52136;SDS011;69622;49.570;10.986;2024-02-14T06:51:43;6.60;;;3.38;;
52136;SDS011;69622;49.570;10.986;2024-02-14T06:54:44;6.97;;;3.20;;
52136;SDS011;69622;49.570;10.986;2024-02-14T06:57:46;7.65;;;3.50;;
52136;SDS011;69622;49.570;10.986;2024-02-14T07:00:48;6.32;;;3.17;;
52136;SDS011;69622;49.570;10.986;2024-02-14T07:03:49;7.80;;;4.20;;
52136;SDS011;69622;49.570;10.986;2024-02-14T07:06:55;5.88;;;3.10;;
52136;SDS011;69622;49.570;10.986;2024-02-14T07:09:56;4.88;;;3.17;;
52136;SDS011;69622;49.570;10.986;2024-02-14T07:12:58;5.13;;;3.08;;
52136;SDS011;69622;49.570;10.986;2024-02-14T07:15:59;4.85;;;3.10;;
52136;SDS011;69622;49.570;10.986;2024-02-14T07:19:01;6.10;;;3.15;;
52136;SDS011;69622;49.570;10.986;2024-02-14T07:22:03;9.85;;;3.78;;
52136;SDS011;69622;49.570;10.986;2024-02-14T07:25:05;7.13;;;3.53;;
52136;SDS011;69622;49.570;10.986;2024-02-14T07:28:09;4.70;;;3.25;;
52136;SDS011;69622;49.570;10.986;2024-02-14T07:31:10;5.13;;;2.83;;
52136;SDS011;69622;49.570;10.986;2024-02-14T07:34:12;4.57;;;2.50;;
52136;SDS011;69622;49.570;10.986;2024-02-14T07:37:14;6.45;;;3.20;;
52136;SDS011;69622;49.570;10.986;2024-02-14T07:40:21;6.95;;;3.13;;
52136;SDS011;69622;49.570;10.986;2024-02-14T07:43:23;7.22;;;4.38;;
52136;SDS011;69622;49.570;10.986;2024-02-14T07:46:24;4.90;;;3.22;;
52136;SDS011;69622;49.570;10.986;2024-02-14T07:49:29;8.20;;;3.65;;
52136;SDS011;69622;49.570;10.986;2024-02-14T07:52:31;5.97;;;3.25;;
52136;SDS011;69622;49.570;10.986;2024-02-14T07:55:35;6.45;;;3.08;;
52136;SDS011;69622;49.570;10.986;2024-02-14T07:58:36;9.30;;;3.47;;
52136;SDS011;69622;49.570;10.986;2024-02-14T08:01:38;6.10;;;3.60;;
52136;SDS011;69622;49.570;10.986;2024-02-14T08:04:39;5.20;;;3.63;;
52136;SDS011;69622;49.570;10.986;2024-02-14T08:07:41;6.53;;;3.47;;
52136;SDS011;69622;49.570;10.986;2024-02-14T08:10:42;7.80;;;3.92;;
52136;SDS011;69622;49.570;10.986;2024-02-14T08:13:44;8.23;;;3.58;;
52136;SDS011;69622;49.570;10.986;2024-02-14T08:16:45;7.22;;;3.25;;
52136;SDS011;69622;49.570;10.986;2024-02-14T08:19:47;5.90;;;3.22;;
52136;SDS011;69622;49.570;10.986;2024-02-14T08:23:13;7.07;;;3.25;;
52136;SDS011;69622;49.570;10.986;2024-02-14T08:26:38;7.10;;;3.45;;
52136;SDS011;69622;49.570;10.986;2024-02-14T08:30:03;10.07;;;3.83;;
52136;SDS011;69622;49.570;10.986;2024-02-14T08:33:31;7.75;;;3.58;;
52136;SDS011;69622;49.570;10.986;2024-02-14T08:36:57;10.15;;;4.50;;
52136;SDS011;69622;49.570;10.986;2024-02-14T08:40:23;6.22;;;3.58;;
52136;SDS011;69622;49.570;10.986;2024-02-14T08:43:48;6.45;;;3.53;;
52136;SDS011;69622;49.570;10.986;2024-02-14T08:47:15;6.03;;;3.83;;
52136;SDS011;69622;49.570;10.986;2024-02-14T08:50:40;6.38;;;4.18;;
52136;SDS011;69622;49.570;10.986;2024-02-14T08:54:06;6.03;;;3.75;;
52136;SDS011;69622;49.570;10.986;2024-02-14T08:57:31;6.40;;;3.33;;
52136;SDS011;69622;49.570;10.986;2024-02-14T09:00:56;8.17;;;3.60;;
52136;SDS011;69622;49.570;10.986;2024-02-14T09:04:21;6.20;;;4.20;;
52136;SDS011;69622;49.570;10.986;2024-02-14T09:07:46;9.75;;;3.78;;
52136;SDS011;69622;49.570;10.986;2024-02-14T09:11:12;6.75;;;3.15;;
52136;SDS011;69622;49.570;10.986;2024-02-14T09:14:37;4.25;;;3.15;;
52136;SDS011;69622;49.570;10.986;2024-02-14T09:18:02;4.43;;;3.00;;
52136;SDS011;69622;49.570;10.986;2024-02-14T09:21:28;5.28;;;3.42;;
52136;SDS011;69622;49.570;10.986;2024-02-14T09:24:53;7.47;;;3.50;;
52136;SDS011;69622;49.570;10.986;2024-02-14T09:28:19;15.20;;;3.60;;
52136;SDS011;69622;49.570;10.986;2024-02-14T09:31:45;6.47;;;3.40;;
52136;SDS011;69622;49.570;10.986;2024-02-14T09:35:13;16.08;;;4.50;;
52136;SDS011;69622;49.570;10.986;2024-02-14T09:38:38;6.63;;;3.83;;
52136;SDS011;69622;49.570;10.986;2024-02-14T09:42:06;7.70;;;3.85;;
52136;SDS011;69622;49.570;10.986;2024-02-14T09:45:34;7.18;;;3.58;;
52136;SDS011;69622;49.570;10.986;2024-02-14T09:49:01;6.95;;;3.60;;
52136;SDS011;69622;49.570;10.986;2024-02-14T09:52:28;6.30;;;3.00;;
52136;SDS011;69622;49.570;10.986;2024-02-14T09:55:56;6.72;;;3.83;;
52136;SDS011;69622;49.570;10.986;2024-02-14T09:59:23;5.18;;;3.22;;
52136;SDS011;69622;49.570;10.986;2024-02-14T10:02:49;6.57;;;3.58;;
52136;SDS011;69622;49.570;10.986;2024-02-14T10:09:42;6.40;;;3.47;;
52136;SDS011;69622;49.570;10.986;2024-02-14T10:13:08;7.78;;;2.97;;
52136;SDS011;69622;49.570;10.986;2024-02-14T10:16:34;7.13;;;3.00;;
52136;SDS011;69622;49.570;10.986;2024-02-14T10:20:01;5.90;;;3.30;;
52136;SDS011;69622;49.570;10.986;2024-02-14T10:23:30;7.32;;;2.78;;
52136;SDS011;69622;49.570;10.986;2024-02-14T10:26:56;6.57;;;2.97;;
52136;SDS011;69622;49.570;10.986;2024-02-14T10:30:22;6.97;;;4.40;;
52136;SDS011;69622;49.570;10.986;2024-02-14T10:33:24;3.55;;;2.25;;
52136;SDS011;69622;49.570;10.986;2024-02-14T10:36:29;4.28;;;2.53;;
52136;SDS011;69622;49.570;10.986;2024-02-14T10:39:32;3.67;;;2.08;;
52136;SDS011;69622;49.570;10.986;2024-02-14T10:42:36;4.38;;;2.00;;
52136;SDS011;69622;49.570;10.986;2024-02-14T10:45:38;6.70;;;2.83;;
52136;SDS011;69622;49.570;10.986;2024-02-14T10:48:40;4.78;;;2.80;;
52136;SDS011;69622;49.570;10.986;2024-02-14T10:51:43;4.53;;;2.95;;
52136;SDS011;69622;49.570;10.986;2024-02-14T10:54:48;7.75;;;2.50;;
52136;SDS011;69622;49.570;10.986;2024-02-14T10:57:58;5.70;;;2.83;;
52136;SDS011;69622;49.570;10.986;2024-02-14T11:01:00;5.22;;;1.80;;
52136;SDS011;69622;49.570;10.986;2024-02-14T11:04:02;3.40;;;2.33;;
52136;SDS011;69622;49.570;10.986;2024-02-14T11:07:08;3.25;;;1.35;;
52136;SDS011;69622;49.570;10.986;2024-02-14T11:10:15;4.78;;;1.48;;
52136;SDS011;69622;49.570;10.986;2024-02-14T11:13:18;3.92;;;1.48;;
52136;SDS011;69622;49.570;10.986;2024-02-14T11:16:22;2.95;;;1.60;;
52136;SDS011;69622;49.570;10.986;2024-02-14T11:19:30;4.65;;;1.90;;
52136;SDS011;69622;49.570;10.986;2024-02-14T11:22:37;3.90;;;1.58;;
52136;SDS011;69622;49.570;10.986;2024-02-14T11:25:38;3.00;;;1.42;;
52136;SDS011;69622;49.570;10.986;2024-02-14T11:28:40;3.33;;;1.35;;
52136;SDS011;69622;49.570;10.986;2024-02-14T11:31:41;4.93;;;1.50;;
52136;SDS011;69622;49.570;10.986;2024-02-14T11:34:56;1.67;;;0.90;;
52136;SDS011;69622;49.570;10.986;2024-02-14T11:37:59;2.17;;;0.82;;
52136;SDS011;69622;49.570;10.986;2024-02-14T11:41:02;5.15;;;1.00;;
52136;SDS011;69622;49.570;10.986;2024-02-14T11:44:04;0.93;;;0.30;;
52136;SDS011;69622;49.570;10.986;2024-02-14T11:47:06;1.42;;;0.50;;
52136;SDS011;69622;49.570;10.986;2024-02-14T11:50:08;2.47;;;0.60;;
52136;SDS011;69622;49.570;10.986;2024-02-14T11:53:11;0.70;;;0.35;;
52136;SDS011;69622;49.570;10.986;2024-02-14T11:56:14;1.40;;;0.50;;
52136;SDS011;69622;49.570;10.986;2024-02-14T11:59:16;0.77;;;0.45;;
52136;SDS011;69622;49.570;10.986;2024-02-14T12:02:21;1.92;;;0.65;;
52136;SDS011;69622;49.570;10.986;2024-02-14T12:05:23;1.58;;;0.68;;
52136;SDS011;69622;49.570;10.986;2024-02-14T12:08:25;0.60;;;0.30;;
52136;SDS011;69622;49.570;10.986;2024-02-14T12:11:27;0.85;;;0.47;;
52136;SDS011;69622;49.570;10.986;2024-02-14T12:14:32;0.60;;;0.40;;
52136;SDS011;69622;49.570;10.986;2024-02-14T12:17:34;1.60;;;0.68;;
52136;SDS011;69622;49.570;10.986;2024-02-14T12:20:36;0.50;;;0.30;;
52136;SDS011;69622;49.570;10.986;2024-02-14T12:23:41;0.93;;;0.40;;
52136;SDS011;69622;49.570;10.986;2024-02-14T12:26:43;1.27;;;0.75;;
52136;SDS011;69622;49.570;10.986;2024-02-14T12:29:45;1.45;;;0.85;;
52136;SDS011;69622;49.570;10.986;2024-02-14T12:32:57;0.63;;;0.40;;
52136;SDS011;69622;49.570;10.986;2024-02-14T12:36:00;0.90;;;0.50;;
52136;SDS011;69622;49.570;10.986;2024-02-14T12:39:02;0.80;;;0.40;;
52136;SDS011;69622;49.570;10.986;2024-02-14T12:42:04;1.02;;;0.65;;
52136;SDS011;69622;49.570;10.986;2024-02-14T12:45:06;1.60;;;0.50;;
52136;SDS011;69622;49.570;10.986;2024-02-14T12:48:09;1.13;;;0.47;;
52136;SDS011;69622;49.570;10.986;2024-02-14T12:51:11;2.67;;;1.00;;
52136;SDS011;69622;49.570;10.986;2024-02-14T12:54:16;0.98;;;0.52;;
52136;SDS011;69622;49.570;10.986;2024-02-14T12:57:17;1.42;;;0.70;;
52136;SDS011;69622;49.570;10.986;2024-02-14T13:00:20;1.30;;;0.60;;
52136;SDS011;69622;49.570;10.986;2024-02-14T13:03:23;1.02;;;0.60;;
52136;SDS011;69622;49.570;10.986;2024-02-14T13:06:24;1.70;;;0.80;;
52136;SDS011;69622;49.570;10.986;2024-02-14T13:09:26;3.80;;;0.82;;
52136;SDS011;69622;49.570;10.986;2024-02-14T13:12:29;1.00;;;0.50;;
52136;SDS011;69622;49.570;10.986;2024-02-14T13:15:30;1.45;;;0.60;;
52136;SDS011;69622;49.570;10.986;2024-02-14T13:18:32;0.90;;;0.50;;
52136;SDS011;69622;49.570;10.986;2024-02-14T13:21:34;1.33;;;0.65;;
52136;SDS011;69622;49.570;10.986;2024-02-14T13:24:35;1.23;;;0.40;;
52136;SDS011;69622;49.570;10.986;2024-02-14T13:27:37;0.80;;;0.45;;
52136;SDS011;69622;49.570;10.986;2024-02-14T13:30:39;0.85;;;0.60;;
52136;SDS011;69622;49.570;10.986;2024-02-14T13:33:41;0.70;;;0.28;;
52136;SDS011;69622;49.570;10.986;2024-02-14T13:36:43;1.75;;;0.65;;
52136;SDS011;69622;49.570;10.986;2024-02-14T13:39:45;0.88;;;0.50;;
52136;SDS011;69622;49.570;10.986;2024-02-14T13:42:46;1.05;;;0.50;;
52136;SDS011;69622;49.570;10.986;2024-02-14T13:45:48;3.03;;;1.08;;
52136;SDS011;69622;49.570;10.986;2024-02-14T13:48:51;0.93;;;0.52;;
52136;SDS011;69622;49.570;10.986;2024-02-14T13:51:53;2.58;;;0.60;;
52136;SDS011;69622;49.570;10.986;2024-02-14T13:54:54;1.42;;;0.70;;
52136;SDS011;69622;49.570;10.986;2024-02-14T13:57:56;1.20;;;0.65;;
52136;SDS011;69622;49.570;10.986;2024-02-14T14:00:57;1.33;;;0.65;;
52136;SDS011;69622;49.570;10.986;2024-02-14T14:04:00;2.30;;;0.65;;
52136;SDS011;69622;49.570;10.986;2024-02-14T14:07:01;1.67;;;0.85;;
52136;SDS011;69622;49.570;10.986;2024-02-14T14:10:06;2.25;;;0.90;;
52136;SDS011;69622;49.570;10.986;2024-02-14T14:13:09;2.80;;;0.63;;
52136;SDS011;69622;49.570;10.986;2024-02-14T14:16:10;1.35;;;0.68;;
52136;SDS011;69622;49.570;10.986;2024-02-14T14:19:12;4.28;;;0.95;;
52136;SDS011;69622;49.570;10.986;2024-02-14T14:22:14;1.48;;;0.52;;
52136;SDS011;69622;49.570;10.986;2024-02-14T14:25:17;1.35;;;0.60;;
52136;SDS011;69622;49.570;10.986;2024-02-14T14:28:19;1.50;;;0.60;;
52136;SDS011;69622;49.570;10.986;2024-02-14T14:31:25;2.08;;;0.65;;
52136;SDS011;69622;49.570;10.986;2024-02-14T14:37:33;3.15;;;0.82;;
52136;SDS011;69622;49.570;10.986;2024-02-14T14:40:35;1.38;;;0.60;;
52136;SDS011;69622;49.570;10.986;2024-02-14T14:43:38;2.63;;;1.45;;
52136;SDS011;69622;49.570;10.986;2024-02-14T14:46:40;2.88;;;0.85;;
52136;SDS011;69622;49.570;10.986;2024-02-14T14:49:43;3.25;;;0.82;;
52136;SDS011;69622;49.570;10.986;2024-02-14T14:52:44;2.08;;;1.00;;
52136;SDS011;69622;49.570;10.986;2024-02-14T14:55:53;0.90;;;0.68;;
52136;SDS011;69622;49.570;10.986;2024-02-14T14:58:58;1.30;;;0.70;;
52136;SDS011;69622;49.570;10.986;2024-02-14T15:02:01;1.48;;;0.55;;
52136;SDS011;69622;49.570;10.986;2024-02-14T15:05:03;2.53;;;0.95;;
52136;SDS011;69622;49.570;10.986;2024-02-14T15:08:06;1.23;;;0.82;;
52136;SDS011;69622;49.570;10.986;2024-02-14T15:11:09;3.45;;;0.88;;
52136;SDS011;69622;49.570;10.986;2024-02-14T15:14:10;2.78;;;0.82;;
52136;SDS011;69622;49.570;10.986;2024-02-14T15:17:11;2.90;;;1.00;;
52136;SDS011;69622;49.570;10.986;2024-02-14T15:20:13;1.67;;;0.80;;
52136;SDS011;69622;49.570;10.986;2024-02-14T15:23:15;1.48;;;1.00;;
52136;SDS011;69622;49.570;10.986;2024-02-14T15:26:16;1.83;;;1.23;;
52136;SDS011;69622;49.570;10.986;2024-02-14T15:29:18;1.05;;;0.60;;
52136;SDS011;69622;49.570;10.986;2024-02-14T15:32:39;1.10;;;0.70;;
52136;SDS011;69622;49.570;10.986;2024-02-14T15:35:59;1.23;;;0.70;;
52136;SDS011;69622;49.570;10.986;2024-02-14T15:39:01;2.63;;;0.70;;
52136;SDS011;69622;49.570;10.986;2024-02-14T15:42:02;2.08;;;0.70;;
52136;SDS011;69622;49.570;10.986;2024-02-14T15:45:04;2.53;;;1.10;;
52136;SDS011;69622;49.570;10.986;2024-02-14T15:48:07;0.88;;;0.65;;
52136;SDS011;69622;49.570;10.986;2024-02-14T15:51:09;2.50;;;1.20;;
52136;SDS011;69622;49.570;10.986;2024-02-14T15:54:11;4.95;;;1.35;;
52136;SDS011;69622;49.570;10.986;2024-02-14T15:57:12;2.05;;;1.02;;
52136;SDS011;69622;49.570;10.986;2024-02-14T16:00:14;1.70;;;0.80;;
52136;SDS011;69622;49.570;10.986;2024-02-14T16:03:16;2.10;;;0.82;;
52136;SDS011;69622;49.570;10.986;2024-02-14T16:06:17;1.88;;;0.98;;
52136;SDS011;69622;49.570;10.986;2024-02-14T16:09:20;2.33;;;0.73;;
52136;SDS011;69622;49.570;10.986;2024-02-14T16:12:21;2.30;;;0.90;;
52136;SDS011;69622;49.570;10.986;2024-02-14T16:15:23;1.83;;;0.93;;
52136;SDS011;69622;49.570;10.986;2024-02-14T16:18:26;1.98;;;0.95;;
52136;SDS011;69622;49.570;10.986;2024-02-14T16:21:27;1.58;;;1.13;;
52136;SDS011;69622;49.570;10.986;2024-02-14T16:24:29;1.25;;;0.73;;
52136;SDS011;69622;49.570;10.986;2024-02-14T16:27:32;1.73;;;0.93;;
52136;SDS011;69622;49.570;10.986;2024-02-14T16:30:34;1.88;;;0.90;;
52136;SDS011;69622;49.570;10.986;2024-02-14T16:33:35;2.72;;;0.70;;
52136;SDS011;69622;49.570;10.986;2024-02-14T16:36:37;1.63;;;0.93;;
52136;SDS011;69622;49.570;10.986;2024-02-14T16:39:38;4.30;;;0.98;;
52136;SDS011;69622;49.570;10.986;2024-02-14T16:42:45;1.67;;;0.82;;
52136;SDS011;69622;49.570;10.986;2024-02-14T16:45:46;1.88;;;0.82;;
52136;SDS011;69622;49.570;10.986;2024-02-14T16:48:48;4.22;;;1.25;;
52136;SDS011;69622;49.570;10.986;2024-02-14T16:51:52;1.67;;;0.90;;
52136;SDS011;69622;49.570;10.986;2024-02-14T16:54:54;2.10;;;1.05;;
52136;SDS011;69622;49.570;10.986;2024-02-14T16:57:55;0.90;;;0.60;;
52136;SDS011;69622;49.570;10.986;2024-02-14T17:00:58;2.10;;;1.10;;
52136;SDS011;69622;49.570;10.986;2024-02-14T17:03:59;3.72;;;0.80;;
52136;SDS011;69622;49.570;10.986;2024-02-14T17:07:07;2.88;;;1.10;;
52136;SDS011;69622;49.570;10.986;2024-02-14T17:10:12;1.83;;;1.05;;
52136;SDS011;69622;49.570;10.986;2024-02-14T17:13:13;2.72;;;1.02;;
52136;SDS011;69622;49.570;10.986;2024-02-14T17:16:16;3.08;;;1.08;;
52136;SDS011;69622;49.570;10.986;2024-02-14T17:19:17;1.30;;;1.13;;
52136;SDS011;69622;49.570;10.986;2024-02-14T17:22:19;1.80;;;1.05;;
52136;SDS011;69622;49.570;10.986;2024-02-14T17:25:31;2.83;;;1.75;;
52136;SDS011;69622;49.570;10.986;2024-02-14T17:28:32;3.83;;;1.70;;
52136;SDS011;69622;49.570;10.986;2024-02-14T17:31:34;3.28;;;1.48;;
52136;SDS011;69622;49.570;10.986;2024-02-14T17:34:36;3.05;;;1.83;;
52136;SDS011;69622;49.570;10.986;2024-02-14T17:37:39;4.80;;;1.73;;
52136;SDS011;69622;49.570;10.986;2024-02-14T17:40:41;2.72;;;2.00;;
52136;SDS011;69622;49.570;10.986;2024-02-14T17:43:43;2.08;;;1.35;;
52136;SDS011;69622;49.570;10.986;2024-02-14T17:46:45;1.90;;;1.40;;
52136;SDS011;69622;49.570;10.986;2024-02-14T17:49:46;3.05;;;1.60;;
52136;SDS011;69622;49.570;10.986;2024-02-14T17:52:49;2.45;;;1.67;;
52136;SDS011;69622;49.570;10.986;2024-02-14T17:55:51;5.55;;;2.00;;
52136;SDS011;69622;49.570;10.986;2024-02-14T17:58:55;2.67;;;1.40;;
52136;SDS011;69622;49.570;10.986;2024-02-14T18:01:56;3.17;;;1.30;;
52136;SDS011;69622;49.570;10.986;2024-02-14T18:04:57;2.38;;;1.15;;
52136;SDS011;69622;49.570;10.986;2024-02-14T18:08:00;1.88;;;1.15;;
52136;SDS011;69622;49.570;10.986;2024-02-14T18:11:01;5.30;;;1.90;;
52136;SDS011;69622;49.570;10.986;2024-02-14T18:14:04;3.38;;;2.20;;
52136;SDS011;69622;49.570;10.986;2024-02-14T18:17:05;2.38;;;1.55;;
52136;SDS011;69622;49.570;10.986;2024-02-14T18:20:07;2.90;;;1.60;;
52136;SDS011;69622;49.570;10.986;2024-02-14T18:23:09;2.85;;;1.63;;
52136;SDS011;69622;49.570;10.986;2024-02-14T18:26:10;3.38;;;2.00;;
52136;SDS011;69622;49.570;10.986;2024-02-14T18:29:12;5.55;;;2.55;;
52136;SDS011;69622;49.570;10.986;2024-02-14T18:32:14;5.85;;;2.78;;
52136;SDS011;69622;49.570;10.986;2024-02-14T18:35:16;6.78;;;3.65;;
52136;SDS011;69622;49.570;10.986;2024-02-14T18:38:18;6.10;;;3.75;;
52136;SDS011;69622;49.570;10.986;2024-02-14T18:41:22;5.43;;;3.85;;
52136;SDS011;69622;49.570;10.986;2024-02-14T18:44:23;7.88;;;4.10;;